createdAt,value
2022-11-22T00:00:17.320Z,0.00
2022-11-22T00:05:17.218Z,0.00
2022-11-22T00:10:17.136Z,0.00
2022-11-22T00:15:17.107Z,0.00
2022-11-22T00:20:17.066Z,0.00
2022-11-22T00:25:17.074Z,0.00
2022-11-22T05:00:26.512Z,0.00
2022-11-22T05:05:26.498Z,0.00
2022-11-22T05:10:27.320Z,0.00
2022-11-22T05:15:33.390Z,0.00
2022-11-22T05:20:26.317Z,0.00
2022-11-22T05:25:26.213Z,0.00
2022-11-22T05:30:26.178Z,0.00
2022-11-22T05:35:26.123Z,0.00
2022-11-22T05:40:26.073Z,0.00
2022-11-22T05:45:26.000Z,0.00
2022-11-22T05:50:25.953Z,0.00
2022-11-22T05:55:25.916Z,0.00
2022-11-22T06:00:25.859Z,0.00
2022-11-22T06:05:25.777Z,0.00
2022-11-22T06:10:25.753Z,0.00
2022-11-22T06:15:25.698Z,0.00
2022-11-22T06:20:25.679Z,0.00
2022-11-22T06:25:25.568Z,0.00
2022-11-22T06:30:25.536Z,4.00
2022-11-22T06:35:25.489Z,8.00
2022-11-22T06:40:25.422Z,24.00
2022-11-22T06:45:25.366Z,44.00
2022-11-22T06:50:25.326Z,80.00
2022-11-22T06:55:49.236Z,132.00
2022-11-22T07:00:26.208Z,192.00
2022-11-22T07:05:26.287Z,260.00
2022-11-22T07:10:25.099Z,340.00
2022-11-22T07:15:25.067Z,440.00
2022-11-22T07:20:24.994Z,548.00
2022-11-22T07:25:24.937Z,660.00
2022-11-22T07:30:24.878Z,784.00
2022-11-22T07:35:24.862Z,1072.00
2022-11-22T07:40:24.775Z,1284.00
2022-11-22T07:45:24.731Z,1632.00
2022-11-22T07:50:24.660Z,1784.00
2022-11-22T07:55:24.730Z,2244.00
2022-11-22T08:00:24.914Z,2080.00
2022-11-22T08:05:24.501Z,2028.00
2022-11-22T08:10:24.457Z,2384.00
2022-11-22T08:15:24.514Z,2880.00
2022-11-22T08:20:24.476Z,2960.00
2022-11-22T08:25:24.293Z,2824.00
2022-11-22T08:30:24.240Z,3144.00
2022-11-22T08:35:24.304Z,3244.00
2022-11-22T08:40:24.197Z,3392.00
2022-11-22T08:45:24.080Z,3644.00
2022-11-22T08:50:24.108Z,3720.00
2022-11-22T08:55:24.098Z,3672.00
2022-11-22T09:00:26.422Z,3448.00
2022-11-22T09:05:23.939Z,3820.00
2022-11-22T09:10:23.812Z,3924.00
2022-11-22T09:15:23.946Z,4080.00
2022-11-22T09:20:23.706Z,3460.00
2022-11-22T09:25:23.647Z,3848.00
2022-11-22T09:30:23.598Z,2484.00
2022-11-22T09:35:23.664Z,2468.00
2022-11-22T09:40:23.491Z,3336.00
2022-11-22T09:45:23.437Z,3268.00
2022-11-22T09:50:23.387Z,2684.00
2022-11-22T09:55:24.309Z,2772.00
2022-11-22T10:00:23.277Z,3268.00
2022-11-22T10:05:23.223Z,4124.00
2022-11-22T10:10:23.167Z,3608.00
2022-11-22T10:15:23.225Z,3264.00
2022-11-22T10:20:23.081Z,3260.00
2022-11-22T10:25:23.007Z,3060.00
2022-11-22T10:30:22.958Z,3460.00
2022-11-22T10:35:23.015Z,3404.00
2022-11-22T10:40:22.852Z,3392.00
2022-11-22T10:45:22.798Z,3524.00
2022-11-22T10:50:22.746Z,3628.00
2022-11-22T10:55:22.813Z,3576.00
2022-11-22T11:00:22.640Z,4060.00
2022-11-22T11:05:22.585Z,3980.00
2022-11-22T11:10:30.807Z,3636.00
2022-11-22T11:15:23.601Z,4968.00
2022-11-22T11:20:22.425Z,5396.00
2022-11-22T11:25:22.376Z,5708.00
2022-11-22T11:30:22.318Z,5336.00
2022-11-22T11:35:22.389Z,3396.00
2022-11-22T11:40:22.215Z,6584.00
2022-11-22T11:45:22.177Z,7592.00
2022-11-22T11:50:24.417Z,5212.00
2022-11-22T11:55:22.271Z,4092.00
2022-11-22T12:00:21.999Z,4200.00
2022-11-22T12:05:21.946Z,3664.00
2022-11-22T12:10:21.893Z,3672.00
2022-11-22T12:15:21.962Z,4084.00
2022-11-22T12:20:21.786Z,4752.00
2022-11-22T12:25:32.537Z,3372.00
2022-11-22T12:30:22.680Z,3160.00
2022-11-22T12:35:21.743Z,3396.00
2022-11-22T12:40:21.574Z,2784.00
2022-11-22T12:45:21.524Z,2712.00
2022-11-22T12:50:21.480Z,2208.00
2022-11-22T12:55:21.531Z,1860.00
2022-11-22T13:00:21.359Z,1908.00
2022-11-22T13:05:21.313Z,1880.00
2022-11-22T13:10:21.247Z,2004.00
2022-11-22T13:15:21.321Z,1784.00
2022-11-22T13:20:21.150Z,1512.00
2022-11-22T13:25:21.101Z,1124.00
2022-11-22T13:30:21.046Z,948.00
2022-11-22T13:35:21.115Z,1144.00
2022-11-22T13:40:20.937Z,1644.00
2022-11-22T13:45:20.988Z,1568.00
2022-11-22T13:50:20.826Z,1660.00
2022-11-22T13:55:20.893Z,1056.00
2022-11-22T14:00:20.724Z,888.00
2022-11-22T14:05:20.671Z,792.00
2022-11-22T14:10:20.614Z,632.00
2022-11-22T14:15:20.680Z,764.00
2022-11-22T14:20:20.511Z,820.00
2022-11-22T14:25:20.457Z,760.00
2022-11-22T14:30:20.412Z,1000.00
2022-11-22T14:35:23.600Z,908.00
2022-11-22T14:40:21.300Z,724.00
2022-11-22T14:45:23.102Z,676.00
2022-11-22T14:50:20.192Z,624.00
2022-11-22T14:55:20.266Z,464.00
2022-11-22T15:00:20.088Z,432.00
2022-11-22T15:09:23.219Z,404.00
2022-11-22T15:10:20.026Z,312.00
2022-11-22T16:00:20.449Z,4.00
2022-11-22T16:06:08.488Z,0.00
2022-11-22T16:10:20.338Z,0.00
2022-11-22T16:15:19.410Z,0.00
2022-11-22T16:20:19.234Z,0.00
2022-11-22T16:25:19.175Z,0.00
2022-11-22T16:30:23.444Z,0.00
2022-11-22T16:35:29.358Z,0.00
2022-11-22T16:40:20.028Z,0.00
2022-11-22T16:45:19.022Z,0.00
2022-11-22T16:50:18.909Z,0.00
2022-11-22T16:55:18.975Z,0.00
2022-11-22T17:00:18.803Z,0.00
2022-11-22T17:05:18.743Z,0.00
2022-11-22T17:10:18.693Z,0.00
2022-11-22T17:15:18.757Z,0.00
2022-11-22T17:20:25.623Z,0.00
2022-11-22T17:25:18.531Z,0.00
2022-11-22T17:30:18.483Z,0.00
2022-11-22T17:35:18.542Z,0.00
2022-11-22T17:40:18.369Z,0.00
2022-11-22T17:45:18.319Z,0.00
2022-11-22T17:50:18.264Z,0.00
2022-11-22T17:55:18.337Z,0.00
2022-11-22T18:00:18.157Z,0.00
2022-11-22T18:05:18.100Z,0.00
2022-11-22T18:10:18.044Z,0.00
2022-11-22T18:15:18.114Z,0.00
2022-11-22T18:20:17.941Z,0.00
2022-11-22T18:25:17.886Z,0.00
2022-11-22T18:30:17.828Z,0.00
2022-11-22T18:35:17.894Z,0.00
2022-11-22T18:40:17.721Z,0.00
2022-11-22T18:45:17.670Z,0.00
2022-11-22T18:50:17.616Z,0.00
2022-11-22T18:55:17.696Z,0.00
2022-11-22T19:00:17.519Z,0.00
2022-11-22T19:05:19.901Z,0.00
2022-11-22T19:10:18.403Z,0.00
2022-11-22T19:15:17.482Z,0.00
2022-11-22T19:20:47.323Z,0.00
2022-11-22T19:25:18.245Z,0.00
2022-11-22T19:30:17.203Z,0.00
2022-11-22T19:35:17.262Z,0.00
2022-11-22T19:40:17.090Z,0.00
2022-11-22T19:45:17.029Z,0.00
2022-11-22T19:50:16.974Z,0.00
2022-11-22T19:55:17.039Z,0.00
2022-11-22T20:00:16.868Z,0.00
2022-11-22T20:05:16.825Z,0.00
2022-11-22T20:10:16.749Z,0.00
2022-11-22T20:15:16.831Z,0.00
2022-11-22T20:20:16.857Z,0.00
2022-11-22T20:25:16.590Z,0.00
2022-11-22T20:30:16.550Z,0.00
2022-11-22T20:35:16.643Z,0.00
2022-11-22T20:40:16.426Z,0.00
2022-11-22T20:45:16.400Z,0.00
2022-11-22T20:50:16.342Z,0.00
2022-11-22T20:55:16.389Z,0.00
2022-11-22T21:00:16.235Z,0.00
2022-11-22T21:05:16.173Z,0.00
2022-11-22T21:10:16.105Z,0.00
2022-11-22T21:15:16.186Z,0.00
2022-11-22T21:20:16.011Z,0.00
2022-11-22T21:25:15.960Z,0.00
2022-11-22T21:30:15.890Z,0.00
2022-11-22T21:35:15.973Z,0.00
2022-11-22T21:40:15.795Z,0.00
2022-11-22T21:45:15.732Z,0.00
2022-11-22T21:50:15.697Z,0.00
2022-11-22T21:55:15.651Z,0.00
2022-11-22T22:00:15.582Z,0.00
2022-11-22T22:05:15.529Z,0.00
2022-11-22T22:10:15.473Z,0.00
2022-11-22T22:15:15.535Z,0.00
2022-11-22T22:20:15.497Z,0.00
2022-11-22T22:25:15.314Z,0.00
2022-11-22T22:30:15.264Z,0.00
2022-11-22T22:35:15.325Z,0.00
2022-11-22T22:40:15.152Z,0.00
2022-11-22T22:45:15.101Z,0.00
2022-11-22T22:50:15.047Z,0.00
2022-11-22T22:55:15.118Z,0.00
2022-11-22T23:00:14.939Z,0.00
2022-11-22T23:05:14.883Z,0.00
2022-11-22T23:10:14.831Z,0.00
2022-11-22T23:15:14.887Z,0.00
2022-11-22T23:20:21.758Z,0.00
2022-11-22T23:25:14.673Z,0.00
2022-11-22T23:30:14.802Z,0.00
2022-11-22T23:35:14.574Z,0.00
2022-11-22T23:40:14.508Z,0.00
2022-11-22T23:45:14.453Z,0.00
2022-11-22T23:50:14.399Z,0.00
2022-11-22T23:55:14.471Z,0.00
